LFBTLEPP

Guest
Details From LFBT - Tarbes Ossun Lourdes
To LEPP - Pamplona
Flight Number -
Tags generated
Created
Modified
Stats Distance 76 nm / 141 km
Max Altitude 6,800 ft / 2,073 m
Waypoints 3
Social Downloads 1
Likes 0
Share VATSIM

Download

Looking for another format? Having issues loading an existing format? Contact us
Advertisement - Login to hide

Notes

Basic altitude profile: - Ascent Rate: 2500ft/min - Ascent Speed: 250kts - Cruise Altitude: 35000ft - Cruise Speed: 420kts - Descent Rate: 1500ft/min - Descent Speed: 250kts

Route

LFBT LURAN LEPP

ID Type Via Altitude Latitude Longitude Leg Dist Tot Dist Heading (true) Name
O LFBT APT - 0 ft / 0 m 43.17864˚ -0.00634˚ - 0 nm - Tarbes Ossun Lourdes
LURAN FIX - 6,800 ft / 2,073 m 42.97276˚ -0.97922˚ 44 nm 44 nm 254° / 254° -
O LEPP APT - 0 ft / 0 m 42.77083˚ -1.64688˚ 31 nm 76 nm 248° / 247° Pamplona

Altitude Profile

Advertisement - Login to hide

LFBT

Details ICAO LFBT (LDE)
Name Tarbes Ossun Lourdes
Region France
Timezone Europe/Paris (UTC+1.0)
Stats Elevation 1,260 ft / 384 m (AMSL)
Location 43.178643° -0.006340°
Runways 1
Magnetic Variation 0.219° E

METAR

LFBT 180900Z AUTO 26010KT 9999 BKN070 OVC084 07/03 Q1030 NOSIG

Decode

TAF

TAF AMD LFBT 180720Z 1807/1906 20012KT 9999 SCT030 BKN080 BECMG 1809/1811 27011KT TEMPO 1811/1821 4000 RA BKN008 PROB40 TEMPO 1812/1818 28020G35KT PROB30 TEMPO 1815/1821 1200 DZRA BKN001 BECMG 1821/1823 02005KT PROB30 TEMPO 1900/1906 3000 BR BKN002

Decode

Departure Runways

ID Width Length Bearing (true) Bearing (mag) Surface Threshold Offset Overrun Length
02 148 ft / 45 m 9,847 ft / 3,001 m 20.26° 20.04° Asphalt 2,199 ft / 670 m 0 ft / 0 m
20 148 ft / 45 m 9,847 ft / 3,001 m 200.27° 200.05° Asphalt 0 ft / 0 m 0 ft / 0 m

LEPP

Details ICAO LEPP (PNA)
Name Pamplona
Region Spain
Timezone Europe/Madrid (UTC+1.0)
Stats Elevation 1,503 ft / 458 m (AMSL)
Location 42.770831° -1.646876°
Runways 2
Magnetic Variation 0.226° W

METAR

LEPP 180900Z 32006KT 9999 FEW018 BKN032 06/05 Q1031

Decode

TAF

TAF LEPP 180800Z 1809/1909 32009KT 9999 SCT020 BKN030 TX10/1814Z TN00/1906Z TEMPO 1818/1821 35015G25KT PROB40 TEMPO 1815/1824 3000 -RADZ BKN010 BKN014

Decode

Destination Runways

ID Width Length Bearing (true) Bearing (mag) Surface Threshold Offset Overrun Length
15 148 ft / 45 m 7,192 ft / 2,192 m 151.64° 151.87° Asphalt 0 ft / 0 m 0 ft / 0 m
16 148 ft / 45 m 7,245 ft / 2,208 m 151.86° 152.09° Asphalt 0 ft / 0 m 0 ft / 0 m
33 148 ft / 45 m 7,192 ft / 2,192 m 331.65° 331.88° Asphalt 984 ft / 300 m 656 ft / 200 m
34 148 ft / 45 m 7,245 ft / 2,208 m 331.86° 332.09° Asphalt 984 ft / 300 m 0 ft / 0 m

Approach Navaids

Runway Type Ident Frequency Range Bearing (true) Bearing (mag) Slope Elevation
16 Localiser IPN 109.70 MHz 18 nm / 33 km 151.86° 152.09° - 1,503 ft / 458 m (AMSL)
16 Glidescope IPN 109.70 MHz 10 nm / 19 km 151.86° 152.09° 3.40° 1,503 ft / 458 m (AMSL)
16 DME IPN 109.70 MHz 18 nm / 33 km - - - 1,470 ft / 448 m (AMSL)

Popular Alternatives